createdAt,value
2022-07-30T00:00:33.444Z,100424.47
2022-07-30T00:02:59.882Z,100419.91
2022-07-30T00:05:26.401Z,100421.88
2022-07-30T00:07:52.892Z,100420.09
2022-07-30T00:10:20.587Z,100418.91
2022-07-30T00:12:47.100Z,100406.78
2022-07-30T00:15:13.514Z,100408.31
2022-07-30T00:17:39.986Z,100417.44
2022-07-30T00:20:07.092Z,100420.81
2022-07-30T00:22:33.441Z,100408.81
2022-07-30T00:24:59.870Z,100412.69
2022-07-30T00:27:26.698Z,100409.13
2022-07-30T00:29:53.081Z,100408.53
2022-07-30T00:32:19.481Z,100407.38
2022-07-30T00:34:45.922Z,100395.47
2022-07-30T00:37:12.681Z,100408.50
2022-07-30T00:39:39.099Z,100404.97
2022-07-30T00:42:05.548Z,100413.53
2022-07-30T00:44:31.944Z,100409.63
2022-07-30T00:46:58.950Z,100396.81
2022-07-30T00:49:26.881Z,100402.81
2022-07-30T00:51:53.370Z,100403.28
2022-07-30T00:54:21.343Z,100404.19
2022-07-30T00:56:48.844Z,100395.94
2022-07-30T00:59:16.057Z,100406.13
2022-07-30T01:01:42.453Z,100398.72
2022-07-30T01:04:11.529Z,100399.78
2022-07-30T01:06:39.752Z,100405.41
2022-07-30T01:09:07.233Z,100401.97
2022-07-30T01:11:39.249Z,100402.25
2022-07-30T01:14:07.885Z,100405.63
2022-07-30T01:16:35.844Z,100395.06
2022-07-30T01:19:26.079Z,100396.13
2022-07-30T01:22:12.460Z,100403.13
2022-07-30T01:24:44.546Z,100407.56
2022-07-30T01:27:15.704Z,100403.44
2022-07-30T01:29:46.270Z,100407.19
2022-07-30T01:32:13.833Z,100398.94
2022-07-30T01:34:42.450Z,100412.00
2022-07-30T01:37:10.949Z,100408.06
2022-07-30T01:39:38.288Z,100409.13
2022-07-30T01:42:08.420Z,100413.91
2022-07-30T01:44:35.918Z,100409.56
2022-07-30T01:47:03.725Z,100412.13
2022-07-30T01:49:32.404Z,100408.03
2022-07-30T01:52:00.556Z,100402.06
2022-07-30T01:54:28.955Z,100415.13
2022-07-30T01:56:56.805Z,100420.13
2022-07-30T01:59:24.961Z,100413.75
2022-07-30T02:01:51.401Z,100417.88
2022-07-30T02:04:17.949Z,100426.41
2022-07-30T02:06:59.805Z,100423.94
2022-07-30T02:09:31.106Z,100421.53
2022-07-30T02:12:17.596Z,100416.00
2022-07-30T02:15:00.479Z,100423.66
2022-07-30T02:17:39.563Z,100429.91
2022-07-30T02:20:10.083Z,100430.38
2022-07-30T02:22:39.494Z,100425.63
2022-07-30T02:25:08.950Z,100411.66
2022-07-30T02:27:38.827Z,100428.38
2022-07-30T02:30:06.937Z,100432.31
2022-07-30T02:32:37.368Z,100431.91
2022-07-30T02:35:15.934Z,100434.22
2022-07-30T02:37:45.209Z,100435.06
2022-07-30T02:40:16.364Z,100413.41
2022-07-30T02:42:46.532Z,100429.91
2022-07-30T02:45:15.855Z,100432.81
2022-07-30T02:47:44.346Z,100423.94
2022-07-30T02:50:12.661Z,100434.50
2022-07-30T02:52:40.541Z,100437.41
2022-07-30T02:55:09.692Z,100428.09
2022-07-30T02:57:36.989Z,100420.31
2022-07-30T03:00:10.686Z,100435.16
2022-07-30T03:02:38.841Z,100432.09
2022-07-30T03:05:07.522Z,100435.38
2022-07-30T03:07:35.305Z,100443.69
2022-07-30T03:10:02.697Z,100442.25
2022-07-30T03:12:31.261Z,100440.00
2022-07-30T03:14:58.068Z,100437.72
2022-07-30T03:17:28.257Z,100434.84
2022-07-30T03:19:56.854Z,100446.84
2022-07-30T03:22:31.194Z,100450.38
2022-07-30T03:24:59.264Z,100451.00
2022-07-30T03:27:26.241Z,100459.25
2022-07-30T03:29:54.222Z,100454.69
2022-07-30T03:32:26.099Z,100442.53
2022-07-30T03:34:54.452Z,100428.88
2022-07-30T03:37:22.721Z,100452.88
2022-07-30T03:39:49.184Z,100451.22
2022-07-30T03:42:16.500Z,100456.81
2022-07-30T03:44:45.678Z,100451.88
2022-07-30T03:47:13.077Z,100459.09
2022-07-30T03:49:39.759Z,100452.25
2022-07-30T03:52:07.199Z,100451.25
2022-07-30T03:54:34.070Z,100459.53
2022-07-30T03:57:04.990Z,100457.28
2022-07-30T03:59:31.497Z,100460.56
2022-07-30T04:02:05.835Z,100457.28
2022-07-30T04:04:33.915Z,100460.16
2022-07-30T04:07:00.725Z,100469.25
2022-07-30T04:09:27.337Z,100465.16
2022-07-30T04:11:53.744Z,100475.09
2022-07-30T04:14:20.268Z,100473.22
2022-07-30T04:16:52.006Z,100468.88
2022-07-30T04:19:57.675Z,100488.75
2022-07-30T04:22:29.764Z,100484.19
2022-07-30T04:24:57.233Z,100485.63
2022-07-30T04:27:25.318Z,100459.59
2022-07-30T04:29:53.347Z,100490.97
2022-07-30T04:32:20.178Z,100493.03
2022-07-30T04:34:51.400Z,100498.22
2022-07-30T04:37:19.777Z,100496.78
2022-07-30T04:39:46.236Z,100501.94
2022-07-30T04:42:13.203Z,100498.44
2022-07-30T04:44:39.666Z,100508.13
2022-07-30T04:47:06.136Z,100506.69
2022-07-30T04:49:33.897Z,100513.47
2022-07-30T04:52:02.376Z,100514.72
2022-07-30T04:54:39.086Z,100519.44
2022-07-30T04:57:07.142Z,100526.50
2022-07-30T04:59:37.117Z,100527.72
2022-07-30T05:02:06.707Z,100535.38
2022-07-30T05:04:34.654Z,100539.28
2022-07-30T05:07:06.903Z,100538.66
2022-07-30T05:09:34.201Z,100544.03
2022-07-30T05:12:00.589Z,100543.41
2022-07-30T05:14:27.686Z,100544.41
2022-07-30T05:16:54.835Z,100543.53
2022-07-30T05:19:22.532Z,100550.97
2022-07-30T05:21:49.120Z,100539.19
2022-07-30T05:24:15.601Z,100551.78
2022-07-30T05:26:42.094Z,100559.41
2022-07-30T05:29:08.580Z,100556.28
2022-07-30T05:31:35.434Z,100549.19
2022-07-30T05:34:04.738Z,100558.72
2022-07-30T05:36:31.282Z,100556.44
2022-07-30T05:38:57.790Z,100551.84
2022-07-30T05:41:32.373Z,100558.47
2022-07-30T05:44:00.039Z,100564.84
2022-07-30T05:46:27.033Z,100558.56
2022-07-30T05:48:53.908Z,100561.28
2022-07-30T05:51:20.880Z,100557.72
2022-07-30T05:53:47.384Z,100556.03
2022-07-30T05:56:14.096Z,100561.22
2022-07-30T05:58:40.521Z,100540.94
2022-07-30T06:01:06.923Z,100565.31
2022-07-30T06:03:34.750Z,100568.78
2022-07-30T06:06:03.908Z,100565.41
2022-07-30T06:08:30.314Z,100571.59
2022-07-30T06:10:56.666Z,100559.09
2022-07-30T06:13:23.008Z,100570.19
2022-07-30T06:15:49.444Z,100575.53
2022-07-30T06:18:15.810Z,100572.31
2022-07-30T06:20:43.205Z,100580.66
2022-07-30T06:23:09.586Z,100572.50
2022-07-30T06:25:36.041Z,100576.53
2022-07-30T06:28:21.237Z,100572.56
2022-07-30T06:30:52.912Z,100581.41
2022-07-30T06:33:19.298Z,100574.75
2022-07-30T06:35:45.722Z,100580.56
2022-07-30T06:38:12.084Z,100575.38
2022-07-30T06:40:39.395Z,100586.47
2022-07-30T06:43:05.908Z,100571.47
2022-07-30T06:45:32.290Z,100597.31
2022-07-30T06:47:59.066Z,100597.16
2022-07-30T06:50:27.466Z,100599.91
2022-07-30T06:52:53.893Z,100591.81
2022-07-30T06:55:20.274Z,100599.13
2022-07-30T06:57:46.698Z,100599.84
2022-07-30T07:00:13.872Z,100604.81
2022-07-30T07:02:42.485Z,100603.69
2022-07-30T07:05:09.431Z,100599.94
2022-07-30T07:07:41.716Z,100608.31
2022-07-30T07:10:10.920Z,100609.63
2022-07-30T07:12:37.643Z,100620.22
2022-07-30T07:15:04.577Z,100624.88
2022-07-30T07:17:30.977Z,100622.16
2022-07-30T07:20:00.336Z,100625.56
2022-07-30T07:22:28.368Z,100621.78
2022-07-30T07:24:54.734Z,100626.63
2022-07-30T07:27:21.147Z,100636.06
2022-07-30T07:30:05.758Z,100628.28
2022-07-30T07:32:33.766Z,100631.69
2022-07-30T07:35:00.338Z,100582.22
2022-07-30T07:37:26.967Z,100615.00
2022-07-30T07:39:53.438Z,100636.03
2022-07-30T07:42:19.776Z,100635.09
2022-07-30T07:44:46.097Z,100642.19
2022-07-30T07:47:12.454Z,100630.91
2022-07-30T07:49:38.835Z,100621.03
2022-07-30T07:52:05.649Z,100638.34
2022-07-30T07:54:32.473Z,100638.13
2022-07-30T07:56:59.480Z,100637.50
2022-07-30T07:59:39.769Z,100641.88
2022-07-30T08:02:08.076Z,100638.69
2022-07-30T08:04:35.299Z,100636.31
2022-07-30T08:07:02.217Z,100635.34
2022-07-30T08:09:43.888Z,100638.28
2022-07-30T08:12:12.564Z,100638.91
2022-07-30T08:14:39.128Z,100623.94
2022-07-30T08:17:06.291Z,100633.97
2022-07-30T08:19:33.064Z,100620.06
2022-07-30T08:21:59.487Z,100636.56
2022-07-30T08:24:26.127Z,100648.56
2022-07-30T08:26:52.503Z,100628.44
2022-07-30T08:29:18.886Z,100632.34
2022-07-30T08:31:45.387Z,100632.44
2022-07-30T08:34:13.157Z,100630.06
2022-07-30T08:36:39.843Z,100626.66
2022-07-30T08:39:06.242Z,100629.69
2022-07-30T08:41:32.734Z,100629.44
2022-07-30T08:44:01.502Z,100635.00
2022-07-30T08:46:30.796Z,100627.19
2022-07-30T08:48:58.080Z,100632.72
2022-07-30T08:51:25.232Z,100631.50
2022-07-30T08:53:51.785Z,100648.38
2022-07-30T08:56:18.393Z,100641.25
2022-07-30T08:58:45.773Z,100640.06
2022-07-30T09:01:12.202Z,100644.38
2022-07-30T09:03:44.168Z,100645.09
2022-07-30T09:06:11.153Z,100639.28
2022-07-30T09:08:37.704Z,100644.84
2022-07-30T09:11:04.134Z,100647.50
2022-07-30T09:13:37.564Z,100648.28
2022-07-30T09:16:05.716Z,100652.91
2022-07-30T09:18:38.414Z,100656.94
2022-07-30T09:21:15.528Z,100658.66
2022-07-30T09:23:55.506Z,100658.28
2022-07-30T09:26:21.934Z,100658.28
2022-07-30T09:28:48.697Z,100649.69
2022-07-30T09:31:16.635Z,100652.78
2022-07-30T09:33:45.080Z,100653.97
2022-07-30T09:36:18.237Z,100665.06
2022-07-30T09:38:48.820Z,100672.00
2022-07-30T09:41:37.277Z,100669.59
2022-07-30T09:44:05.573Z,100659.91
2022-07-30T09:46:47.295Z,100656.16
2022-07-30T09:49:16.237Z,100653.00
2022-07-30T09:51:54.765Z,100625.13
2022-07-30T09:54:25.295Z,100640.16
2022-07-30T09:57:22.876Z,100646.31
2022-07-30T09:59:54.067Z,100655.34
2022-07-30T10:02:28.316Z,100647.69
2022-07-30T10:04:54.831Z,100649.97
2022-07-30T10:07:25.321Z,100653.25
2022-07-30T10:09:53.312Z,100653.69
2022-07-30T10:12:24.155Z,100663.56
2022-07-30T10:14:53.535Z,100664.69
2022-07-30T10:17:20.161Z,100665.72
2022-07-30T10:19:49.076Z,100657.06
2022-07-30T10:22:17.148Z,100656.75
2022-07-30T10:24:45.816Z,100659.50
2022-07-30T10:27:12.900Z,100654.59
2022-07-30T10:29:42.734Z,100664.72
2022-07-30T10:32:09.761Z,100666.19
2022-07-30T10:34:38.110Z,100656.69
2022-07-30T10:37:12.418Z,100645.72
2022-07-30T10:39:47.184Z,100649.34
2022-07-30T10:42:42.578Z,100656.03
2022-07-30T10:45:18.459Z,100657.78
2022-07-30T10:47:49.071Z,100658.81
2022-07-30T10:50:25.522Z,100661.47
2022-07-30T10:53:01.610Z,100662.72
2022-07-30T10:55:37.497Z,100658.91
2022-07-30T10:58:08.427Z,100661.34
2022-07-30T11:00:56.887Z,100653.91
2022-07-30T11:03:31.407Z,100647.59
2022-07-30T11:06:26.792Z,100636.63
2022-07-30T11:08:57.394Z,100642.72
2022-07-30T11:12:01.249Z,100645.66
2022-07-30T11:14:12.699Z,100647.28
2022-07-30T11:16:39.298Z,100643.22
2022-07-30T11:19:55.787Z,100645.50
2022-07-30T11:22:27.170Z,100637.44
2022-07-30T11:24:53.995Z,100638.13
2022-07-30T11:27:45.710Z,100644.56
2022-07-30T11:30:21.140Z,100638.22
2022-07-30T11:32:52.047Z,100643.72
2022-07-30T11:35:23.060Z,100641.09
2022-07-30T11:38:11.991Z,100646.09
2022-07-30T11:40:59.773Z,100648.34
2022-07-30T11:43:36.834Z,100639.22
2022-07-30T11:46:10.979Z,100639.88
2022-07-30T11:48:54.351Z,100641.31
2022-07-30T11:51:21.453Z,100627.88
2022-07-30T11:54:07.748Z,100612.22
2022-07-30T11:56:34.567Z,100633.34
2022-07-30T11:59:05.885Z,100633.94
2022-07-30T12:01:33.476Z,100634.19
2022-07-30T12:04:05.037Z,100628.56
2022-07-30T12:06:32.081Z,100629.72
2022-07-30T12:08:59.263Z,100635.72
2022-07-30T12:11:31.952Z,100630.03
2022-07-30T12:13:59.968Z,100634.75
2022-07-30T12:16:27.873Z,100638.88
2022-07-30T12:18:54.894Z,100637.31
2022-07-30T12:21:21.622Z,100638.25
2022-07-30T12:23:59.760Z,100627.09
2022-07-30T12:26:29.325Z,100624.22
2022-07-30T12:29:01.895Z,100620.53
2022-07-30T12:31:29.141Z,100625.13
2022-07-30T12:33:57.548Z,100617.63
2022-07-30T12:36:35.746Z,100616.94
2022-07-30T12:39:06.197Z,100619.38
2022-07-30T12:41:50.085Z,100616.69
2022-07-30T12:44:39.582Z,100617.25
2022-07-30T12:47:19.193Z,100615.06
2022-07-30T12:49:49.665Z,100607.72
2022-07-30T12:52:29.328Z,100615.28
2022-07-30T12:54:58.740Z,100613.78
2022-07-30T12:57:25.305Z,100612.69
2022-07-30T13:00:06.949Z,100616.88
2022-07-30T13:02:35.234Z,100608.06
2022-07-30T13:05:10.382Z,100605.38
2022-07-30T13:07:56.373Z,100603.94
2022-07-30T13:10:27.221Z,100605.75
2022-07-30T13:12:56.606Z,100599.28
2022-07-30T13:15:23.067Z,100595.09
2022-07-30T13:17:49.704Z,100595.63
2022-07-30T13:20:16.878Z,100608.75
2022-07-30T13:22:43.527Z,100599.75
2022-07-30T13:25:10.713Z,100600.13
2022-07-30T13:27:37.228Z,100604.28
2022-07-30T13:30:04.933Z,100609.59
2022-07-30T13:32:31.479Z,100603.47
2022-07-30T13:35:01.433Z,100608.97
2022-07-30T13:37:38.648Z,100599.34
2022-07-30T13:40:06.086Z,100601.56
2022-07-30T13:42:32.614Z,100593.44
2022-07-30T13:44:58.949Z,100601.19
2022-07-30T13:47:25.321Z,100593.22
2022-07-30T13:49:51.849Z,100593.78
2022-07-30T13:52:18.758Z,100600.09
2022-07-30T13:54:45.306Z,100604.94
2022-07-30T13:57:11.945Z,100602.94
2022-07-30T13:59:38.498Z,100604.34
2022-07-30T14:02:04.996Z,100575.88
2022-07-30T14:04:31.707Z,100587.50
2022-07-30T14:06:59.368Z,100597.19
2022-07-30T14:09:25.947Z,100587.91
2022-07-30T14:11:53.061Z,100589.00
2022-07-30T14:14:19.489Z,100580.56
2022-07-30T14:16:50.658Z,100581.00
2022-07-30T14:19:24.071Z,100581.97
2022-07-30T14:21:52.655Z,100574.44
2022-07-30T14:24:19.945Z,100580.34
2022-07-30T14:26:46.340Z,100567.25
2022-07-30T14:29:12.719Z,100572.53
2022-07-30T14:31:40.320Z,100566.56
2022-07-30T14:34:06.739Z,100561.44
2022-07-30T14:36:33.317Z,100570.38
2022-07-30T14:39:00.497Z,100562.81
2022-07-30T14:41:26.999Z,100555.59
2022-07-30T14:43:53.743Z,100566.78
2022-07-30T14:46:20.322Z,100554.69
2022-07-30T14:48:47.043Z,100559.97
2022-07-30T14:51:20.543Z,100549.59
2022-07-30T14:53:50.232Z,100545.53
2022-07-30T14:56:17.885Z,100555.06
2022-07-30T14:58:44.333Z,100552.31
2022-07-30T15:01:16.407Z,100556.00
2022-07-30T15:03:44.597Z,100569.06
2022-07-30T15:06:12.756Z,100569.44
2022-07-30T15:08:39.200Z,100572.25
2022-07-30T15:11:06.148Z,100563.28
2022-07-30T15:13:35.010Z,100566.63
2022-07-30T15:16:03.007Z,100563.75
2022-07-30T15:18:29.539Z,100545.81
2022-07-30T15:20:56.318Z,100558.31
2022-07-30T15:23:22.710Z,100549.94
2022-07-30T15:25:49.398Z,100552.63
2022-07-30T15:28:15.854Z,100551.25
2022-07-30T15:30:43.294Z,100560.47
2022-07-30T15:33:09.772Z,100563.38
2022-07-30T15:35:37.313Z,100558.34
2022-07-30T15:38:04.188Z,100561.66
2022-07-30T15:40:30.713Z,100565.19
2022-07-30T15:42:57.125Z,100561.00
2022-07-30T15:45:24.604Z,100557.53
2022-07-30T15:47:51.691Z,100559.97
2022-07-30T15:50:18.130Z,100561.38
2022-07-30T15:52:45.009Z,100558.56
2022-07-30T15:55:11.704Z,100553.94
2022-07-30T15:57:38.138Z,100556.72
2022-07-30T16:00:08.348Z,100551.19
2022-07-30T16:02:35.035Z,100548.97
2022-07-30T16:05:02.042Z,100551.19
2022-07-30T16:07:28.424Z,100551.81
2022-07-30T16:09:54.806Z,100556.38
2022-07-30T16:12:21.201Z,100558.63
2022-07-30T16:14:47.863Z,100548.91
2022-07-30T16:17:14.886Z,100559.28
2022-07-30T16:19:44.747Z,100558.91
2022-07-30T16:22:12.452Z,100555.19
2022-07-30T16:24:45.061Z,100544.47
2022-07-30T16:27:11.552Z,100553.56
2022-07-30T16:29:37.933Z,100551.69
2022-07-30T16:32:05.178Z,100542.59
2022-07-30T16:34:33.065Z,100545.16
2022-07-30T16:36:59.632Z,100534.13
2022-07-30T16:39:30.553Z,100548.47
2022-07-30T16:41:56.965Z,100534.63
2022-07-30T16:44:23.394Z,100552.97
2022-07-30T16:46:49.747Z,100534.03
2022-07-30T16:49:16.263Z,100535.44
2022-07-30T16:51:43.854Z,100540.91
2022-07-30T16:54:10.371Z,100542.03
2022-07-30T16:56:36.738Z,100541.59
2022-07-30T16:59:03.101Z,100536.97
2022-07-30T17:01:29.655Z,100539.13
2022-07-30T17:03:56.077Z,100541.91
2022-07-30T17:06:22.509Z,100533.28
2022-07-30T17:08:48.868Z,100538.22
2022-07-30T17:11:47.152Z,100531.28
2022-07-30T17:14:01.918Z,100537.81
2022-07-30T17:16:28.355Z,100533.91
2022-07-30T17:18:54.730Z,100535.75
2022-07-30T17:21:21.176Z,100535.59
2022-07-30T17:23:47.568Z,100532.38
2022-07-30T17:26:13.952Z,100541.66
2022-07-30T17:28:40.333Z,100536.44
2022-07-30T17:31:06.869Z,100536.09
2022-07-30T17:33:33.269Z,100535.53
2022-07-30T17:35:59.702Z,100539.63
2022-07-30T17:38:28.572Z,100538.81
2022-07-30T17:40:54.994Z,100529.81
2022-07-30T17:43:21.609Z,100541.22
2022-07-30T17:45:47.943Z,100542.16
2022-07-30T17:48:14.336Z,100546.28
2022-07-30T17:50:40.713Z,100547.69
2022-07-30T17:53:07.084Z,100543.91
2022-07-30T17:55:35.335Z,100549.69
2022-07-30T17:58:03.169Z,100542.38
2022-07-30T18:00:29.693Z,100547.00
2022-07-30T18:02:56.121Z,100551.13
2022-07-30T18:05:22.626Z,100556.84
2022-07-30T18:07:48.996Z,100535.66
2022-07-30T18:10:15.366Z,100535.72
2022-07-30T18:12:48.834Z,100563.03
2022-07-30T18:15:17.475Z,100559.22
2022-07-30T18:17:43.886Z,100549.38
2022-07-30T18:20:10.850Z,100561.72
2022-07-30T18:22:37.633Z,100561.16
2022-07-30T18:25:07.935Z,100561.44
2022-07-30T18:27:35.324Z,100556.53
2022-07-30T18:30:02.045Z,100567.19
2022-07-30T18:32:28.475Z,100569.94
2022-07-30T18:34:54.975Z,100570.78
2022-07-30T18:37:21.381Z,100574.88
2022-07-30T18:39:47.773Z,100568.03
2022-07-30T18:42:14.356Z,100553.31
2022-07-30T18:44:40.881Z,100571.34
2022-07-30T18:47:07.314Z,100564.75
2022-07-30T18:49:36.933Z,100574.59
2022-07-30T18:52:04.562Z,100583.59
2022-07-30T18:54:31.335Z,100579.50
2022-07-30T18:56:57.732Z,100579.75
2022-07-30T18:59:24.136Z,100566.88
2022-07-30T19:01:50.696Z,100539.84
2022-07-30T19:04:17.064Z,100581.66
2022-07-30T19:06:43.886Z,100576.72
2022-07-30T19:09:17.188Z,100583.78
2022-07-30T19:11:44.579Z,100582.41
2022-07-30T19:14:12.990Z,100585.94
2022-07-30T19:16:39.664Z,100582.94
2022-07-30T19:19:06.129Z,100576.13
2022-07-30T19:21:32.560Z,100569.03
2022-07-30T19:23:59.059Z,100566.84
2022-07-30T19:26:25.442Z,100557.22
2022-07-30T19:28:51.822Z,100549.28
2022-07-30T19:31:18.989Z,100565.09
2022-07-30T19:33:45.397Z,100574.34
2022-07-30T19:36:12.796Z,100575.13
2022-07-30T19:38:41.951Z,100562.78
2022-07-30T19:41:08.457Z,100572.63
2022-07-30T19:43:34.932Z,100590.56
2022-07-30T19:46:04.364Z,100588.66
2022-07-30T19:48:32.512Z,100587.22
2022-07-30T19:51:00.517Z,100572.69
2022-07-30T19:53:27.985Z,100594.56
2022-07-30T19:56:01.241Z,100595.34
2022-07-30T19:58:27.775Z,100593.97
2022-07-30T20:00:54.279Z,100591.50
2022-07-30T20:03:25.671Z,100589.53
2022-07-30T20:05:54.828Z,100596.03
2022-07-30T20:08:24.795Z,100594.97
2022-07-30T20:10:51.473Z,100597.94
2022-07-30T20:13:17.815Z,100597.13
2022-07-30T20:15:46.377Z,100594.38
2022-07-30T20:18:12.992Z,100591.91
2022-07-30T20:20:41.395Z,100592.16
2022-07-30T20:23:08.242Z,100594.63
2022-07-30T20:25:37.346Z,100579.56
2022-07-30T20:28:21.382Z,100597.88
2022-07-30T20:30:48.705Z,100599.22
2022-07-30T20:33:16.540Z,100600.31
2022-07-30T20:35:53.245Z,100603.53
2022-07-30T20:38:19.677Z,100605.72
2022-07-30T20:40:48.345Z,100602.69
2022-07-30T20:43:14.790Z,100603.19
2022-07-30T20:45:42.974Z,100603.75
2022-07-30T20:48:17.452Z,100611.31
2022-07-30T20:50:51.882Z,100611.88
2022-07-30T20:53:19.722Z,100612.13
2022-07-30T20:55:47.266Z,100608.81
2022-07-30T20:58:16.530Z,100613.69
2022-07-30T21:00:49.752Z,100610.16
2022-07-30T21:03:21.311Z,100612.34
2022-07-30T21:05:48.298Z,100613.66
2022-07-30T21:08:17.796Z,100612.03
2022-07-30T21:10:44.441Z,100607.66
2022-07-30T21:13:11.209Z,100597.03
2022-07-30T21:15:45.654Z,100581.44
2022-07-30T21:18:24.952Z,100590.72
2022-07-30T21:20:52.905Z,100592.63
2022-07-30T21:23:22.172Z,100593.69
2022-07-30T21:28:36.024Z,100599.09
2022-07-30T21:31:07.082Z,100589.28
2022-07-30T21:33:37.596Z,100592.28
2022-07-30T21:36:05.512Z,100583.16
2022-07-30T21:38:38.328Z,100582.06
2022-07-30T21:41:11.055Z,100590.25
2022-07-30T21:43:40.896Z,100567.75
2022-07-30T21:46:07.980Z,100589.06
2022-07-30T21:48:36.913Z,100584.63
2022-07-30T21:51:04.049Z,100583.19
2022-07-30T21:53:45.020Z,100581.75
2022-07-30T21:56:13.205Z,100578.41
2022-07-30T21:58:39.904Z,100577.53
2022-07-30T22:01:17.317Z,100574.16
2022-07-30T22:04:02.631Z,100574.31
2022-07-30T22:06:41.867Z,100567.34
2022-07-30T22:09:19.698Z,100563.19
2022-07-30T22:12:01.243Z,100571.72
2022-07-30T22:14:28.865Z,100567.88
2022-07-30T22:16:55.422Z,100571.09
2022-07-30T22:19:21.980Z,100564.81
2022-07-30T22:21:49.484Z,100570.25
2022-07-30T22:24:29.704Z,100565.41
2022-07-30T22:27:00.978Z,100560.81
2022-07-30T22:29:27.840Z,100561.59
2022-07-30T22:32:01.519Z,100573.88
2022-07-30T22:34:28.117Z,100573.63
2022-07-30T22:36:54.462Z,100565.75
2022-07-30T22:39:24.166Z,100555.38
2022-07-30T22:41:58.995Z,100559.13
2022-07-30T22:44:27.044Z,100557.53
2022-07-30T22:46:56.184Z,100557.53
2022-07-30T22:49:24.473Z,100555.03
2022-07-30T22:52:19.805Z,100555.28
2022-07-30T22:54:50.899Z,100557.19
2022-07-30T22:57:17.446Z,100549.28
2022-07-30T23:00:00.256Z,100556.59
2022-07-30T23:02:27.832Z,100557.69
2022-07-30T23:04:54.595Z,100548.44
2022-07-30T23:07:22.695Z,100553.63
2022-07-30T23:09:52.061Z,100556.34
2022-07-30T23:12:20.117Z,100550.59
2022-07-30T23:12:27.228Z,100593.13
2022-07-30T23:14:47.442Z,100555.78
2022-07-30T23:17:13.970Z,100541.31
2022-07-30T23:19:40.323Z,100555.72
2022-07-30T23:22:07.050Z,100557.06
2022-07-30T23:24:33.616Z,100555.06
2022-07-30T23:27:00.063Z,100560.19
2022-07-30T23:29:26.684Z,100558.53
2022-07-30T23:31:53.019Z,100557.41
2022-07-30T23:34:19.450Z,100548.94
2022-07-30T23:36:45.796Z,100549.66
2022-07-30T23:39:12.580Z,100548.44
2022-07-30T23:41:38.938Z,100546.78
2022-07-30T23:44:05.318Z,100541.63
2022-07-30T23:46:31.764Z,100544.34
2022-07-30T23:48:58.610Z,100538.09
2022-07-30T23:51:25.028Z,100536.72
2022-07-30T23:53:59.779Z,100531.78
2022-07-30T23:56:26.402Z,100530.84
2022-07-30T23:58:52.938Z,100532.75
